This is the latest recevied weather packets stored in our database for station/object WK7G. If no packets are shown the sender has not sent any weather packets the latest 1 day(s).
| Time | Temp. | Humidity | Pressure | Rain* | Wind** | Luminosity | Snow |
|---|---|---|---|---|---|---|---|
| 1778053139 | -1.67° C | 61% | 1009.9 hPa | 0 mm | - | 0 W/m² | - |
| 1778052837 | -1.11° C | 61% | 1010 hPa | 0 mm | - | 0 W/m² | - |
| 1778052231 | -1.11° C | 59% | 1009.9 hPa | 0 mm | - | 0 W/m² | - |
| 1778051929 | -1.11° C | 59% | 1010.1 hPa | 0 mm | - | 0 W/m² | - |
| 1778051627 | -1.11° C | 60% | 1009.4 hPa | 0 mm | - | 0 W/m² | - |
| 1778051323 | -0.56° C | 59% | 1009.7 hPa | 0 mm | - | 0 W/m² | - |
| 1778050717 | 1.11° C | 52% | 1009.5 hPa | 0 mm | - | 0 W/m² | - |
| 1778049807 | 1.11° C | 51% | 1009.2 hPa | 0 mm | - | 0 W/m² | - |
| 1778049202 | 1.11° C | 51% | 1009.4 hPa | 0 mm | - | 0 W/m² | - |
| 1778047689 | 1.67° C | 50% | 1009.1 hPa | 0 mm | - | 0 W/m² | - |
| 1778046780 | 2.22° C | 49% | 1008.9 hPa | 0 mm | - | 0 W/m² | - |
| 1778046476 | 2.22° C | 49% | 1009.1 hPa | 0 mm | - | 0 W/m² | - |
| 1778045870 | 2.78° C | 48% | 1008.8 hPa | 0 mm | - | 0 W/m² | - |
| 1778045569 | 2.78° C | 47% | 1008.7 hPa | 0 mm | - | 0 W/m² | - |
| 1778045266 | 2.22° C | 49% | 1008.8 hPa | 0 mm | - | 0 W/m² | - |
| 1778044358 | 2.78° C | 49% | 1008.6 hPa | 0 mm | - | 0 W/m² | - |
| 1778044056 | 2.78° C | 49% | 1008.3 hPa | 0 mm | - | 0 W/m² | - |
| 1778043753 | 2.78° C | 48% | 1008.3 hPa | 0 mm | - | 0 W/m² | - |
| 1778043146 | 3.89° C | 45% | 1008.2 hPa | 0 mm | - | 0 W/m² | - |
| 1778042541 | 3.89° C | 44% | 1008 hPa | 0 mm | - | 0 W/m² | - |
| 1778042238 | 3.89° C | 43% | 1008.2 hPa | 0 mm | - | 0 W/m² | - |
| 1778041936 | 3.89° C | 43% | 1008.2 hPa | 0 mm | - | 0 W/m² | - |
| 1778041634 | 3.89° C | 43% | 1007.7 hPa | 0 mm | - | 0 W/m² | - |
| 1778041333 | 4.44° C | 43% | 1007.9 hPa | 0 mm | - | 0 W/m² | - |
| 1778040727 | 4.44° C | 42% | 1007.7 hPa | 0 mm | - | 0 W/m² | - |
* Rain latest hour (hover to see other rain measurements)
** Current wind speed in m/s (hover to see current wind gust speed)